logo
App data

Time Rifters

Be your own teammates in this unique single-player co-op shooter!
Store | Hub | SteamDB | Site
Developer: Proton Studio Inc Publisher:
Genre: Action, Casual, Indie
Languages: English
Tags: Action (50), Casual (42), Indie (41), Shooter (39), First-Person (38), Singleplayer (33), FPS (30), VR (29), Time Travel (28), Strategy (23), Level Editor (22), Puzzle (18), Controller (17), Voxel (17), Sci-fi (17), Time Manipulation (16), Tower Defense (10), Multiplayer (9)
Category: Single-player, Steam Achievements, Full controller support, Steam Trading Cards, Steam Workshop, Steam Leaderboards, Includes level editor, Commentary available
Release date: Oct 21, 2014
Price: $9.99
Score rank: 65% Userscore: 86% Old userscore: 88%
Owners: 0 .. 20,000
Peak concurrent players yesterday: 2
Playtime total: 24:47 (average) 03:59 (median)

Steam Spy is still in beta, so expect major bugs.

Owners data:

Access restricted.

This feature is only available to users with special access rights. Sorry.

If you want to proceed, you need to register or log in first and then back Steam Spy on Patreon. Look for Indie or Pro pledge.

Don't forget to use the same email as on Steam Spy!

Audience in 2 weeks:

Access restricted.

This feature is only available to users with special access rights. Sorry.

If you want to proceed, you need to register or log in first and then back Steam Spy on Patreon. Look for Indie or Pro pledge.

Don't forget to use the same email as on Steam Spy!

Peak daily concurrent players:

CCU data courtesy of SteamDB. Used with permission.

Hourly concurrent players:

Daily Twitch stats:

Hourly Twitch stats:

YouTube:

The views data is based on top 50 videos uploaded last week. Actual number of views might be more than the number shown.

The displayed number of videos uploaded yesterday is limited to 50, so if there were more videos uploaded, the number will still show 50.

If the game has commonly used word as its name (like "FEAR" or "Volume") its number of Youtube views might be wrong.

Games similar to this one:

# Game Release date
Price
Score rank
(Userscore / Metascore)
Owners
Players
Playtime (Median)
1 Militia Dec 2, 2015 $5.9999% (98%)0 .. 20,0000%00:00 (00:00)
2 Little Big Adventure 2 Oct 20, 2015 $3.9999% (98%)20,000 .. 50,0000%00:00 (00:00)
3 Dungeon Warfare Nov 4, 2015 $9.9997% (97%)20,000 .. 50,0000%00:00 (00:00)
4 Seven Kingdoms: Ancient Adversaries Jun 8, 1998 $5.99N/A (N/A)0 .. 20,0000%00:00 (00:00)
5 Defend The Highlands Nov 6, 2015 $9.9995% (96%)100,000 .. 200,0001.8%01:09 (02:17)
6 Imperium Galactica Jan 19, 2017 $4.99N/A (N/A)0 .. 20,00025%10:31 (03:30)
7 Templar Battleforce Sep 21, 2015 $9.9993% (95%)20,000 .. 50,0000%00:00 (00:00)
8 Outcast 1.1 Dec 18, 2014 $5.9993% (95%)20,000 .. 50,0000%00:00 (00:00)
9 Chicken Invaders 2 Mar 4, 2016 $3.9993% (95%)0 .. 20,0008%00:37 (00:20)
10 PixelJunk Shooter Nov 11, 2013 $8.9993% (95%/73%)100,000 .. 200,0000%00:00 (00:00)
11 Hegemony Gold: Wars of Ancient Greece Mar 30, 2012 $14.9993% (95%)20,000 .. 50,0000%00:00 (00:00)
12 Darknet Jun 8, 2017 $14.9993% (95%)0 .. 20,0000%00:00 (00:00)
13 Audio Arena Jul 25, 2016 $6.99N/A (N/A)0 .. 20,0000%00:00 (00:00)
14 Stick it to The Man! Dec 13, 2013 $7.9990% (94%/83%)20,000 .. 50,0000%00:00 (00:00)
15 Supercharged Robot VULKAISER Jun 4, 2015 $4.9990% (94%)20,000 .. 50,0000%00:00 (00:00)
16 Kalimba Apr 22, 2015 $9.9990% (94%/81%)0 .. 20,0000%00:00 (00:00)
17 Neon Chrome Apr 28, 2016 $14.9990% (94%/74%)200,000 .. 500,0000.92%00:14 (00:13)
18 Flywrench Aug 24, 2015 $6.9990% (94%)0 .. 20,0000%00:00 (00:00)
19 Majesty Gold HD Mar 23, 2001 $9.9990% (94%)100,000 .. 200,0000%00:00 (00:00)
20 Gold Rush! Classic Dec 23, 1988 $2.9990% (94%)200,000 .. 500,0002.05%03:17 (03:58)
21 Run or Die Dec 11, 2014 $4.9990% (94%)0 .. 20,0000%00:00 (00:00)
22 Star Trek: Judgment Rites May 8, 2015 $9.99N/A (N/A)0 .. 20,0000%00:00 (00:00)
23 Bleed Jul 3, 2013 $4.9987% (93%)100,000 .. 200,0000%00:00 (00:00)
24 Pharaoh Rebirth+ Mar 17, 2016 $9.9987% (93%)0 .. 20,0000%00:00 (00:00)
25 Adventure in the Tower of Flight Dec 23, 2015 $4.9987% (93%)0 .. 20,0000%00:00 (00:00)
26 Eufloria HD Oct 14, 2014 $14.9987% (93%)200,000 .. 500,0000%00:00 (00:00)
27 Kick Ass Commandos Nov 17, 2016 $9.9987% (93%)20,000 .. 50,0000%00:00 (00:00)
28 Tallowmere Mar 3, 2015 $3.9987% (93%)20,000 .. 50,0003.23%02:23 (01:32)
29 Major Mayhem Feb 24, 2014 $4.9987% (93%)20,000 .. 50,0000%00:00 (00:00)
30 Super Trench Attack! Jul 24, 2014 $4.9987% (93%)50,000 .. 100,0000.55%00:43 (00:14)
31 Handsome Mr. Frog Aug 8, 2016 $0.9987% (93%)0 .. 20,0000%00:00 (00:00)
32 Death Ray Manta SE Sep 17, 2015 $1.9983% (92%)20,000 .. 50,0000%00:00 (00:00)
33 Super Cyborg Jul 8, 2015 $4.9983% (92%)20,000 .. 50,0000.93%04:08 (01:22)
34 Knightmare Tower Jun 16, 2014 $3.9983% (92%)0 .. 20,0000%00:00 (00:00)
35 Great Big War Game Aug 28, 2012 $6.99N/A (N/A)0 .. 20,0000%00:00 (00:00)
36 Anarcute Jul 12, 2016 $14.9983% (92%/79%)0 .. 20,0000%00:00 (00:00)
37 Battle Academy 2: Eastern Front Sep 12, 2014 $39.9983% (92%/78%)0 .. 20,0000%00:00 (00:00)
38 The Juicer Sep 6, 2012 $0.9983% (92%)20,000 .. 50,0002%04:58 (04:15)
39 Below Kryll Sep 7, 2015 $4.9983% (92%)0 .. 20,0000%00:00 (00:00)
40 Counter Spell Oct 5, 2015 $9.9983% (92%)0 .. 20,0000%00:00 (00:00)
41 Ys VI: The Ark of Napishtim Apr 28, 2015 $19.9983% (92%)50,000 .. 100,0002.44%03:33 (01:11)
42 Spider: Rite of the Shrouded Moon Aug 6, 2015 $9.9980% (91%)20,000 .. 50,0000%00:00 (00:00)
43 Mad Bullets Jun 10, 2016 $1.9980% (91%)0 .. 20,0000%00:00 (00:00)
44 Miracle Fly Oct 26, 2015 $7.9980% (91%)20,000 .. 50,0000%00:00 (00:00)
45 Explosionade Sep 23, 2015 $3.99N/A (N/A)0 .. 20,0001.41%00:46 (00:15)
46 Momodora III Jul 1, 2014 $1.9980% (91%)50,000 .. 100,0001.49%00:54 (00:18)
47 Earth Defense Force: Insect Armageddon Dec 14, 2011 $9.9980% (91%/69%)50,000 .. 100,0001.35%01:28 (00:29)
48 Ittle Dew Jul 23, 2013 $9.9980% (91%/67%)100,000 .. 200,0000.43%02:15 (00:45)
49 Clash of Puppets Dec 16, 2014 $4.9980% (91%)0 .. 20,0000%00:00 (00:00)
50 Demons with Shotguns Apr 25, 2016 $9.99N/A (N/A)0 .. 20,0000%00:00 (00:00)
51 Skulls of the Shogun Jul 29, 2013 $9.9980% (91%/72%)100,000 .. 200,0000.39%00:51 (00:17)
52 Dandy: Or a Brief Glimpse Into the Life of the Candy Alchemist Aug 4, 2015 $9.99N/A (N/A)0 .. 20,0000%00:00 (00:00)
53 Warrior Kings: Battles Sep 30, 2003 $9.9980% (91%/64%)20,000 .. 50,0000%00:00 (00:00)
54 Armed with Wings: Rearmed Jun 1, 2017 $9.9980% (91%)20,000 .. 50,0001.52%00:22 (00:07)
55 Valley Aug 24, 2016 $19.9980% (91%)100,000 .. 200,0000.79%00:57 (00:19)
56 Flashpoint Campaigns: Red Storm Player's Edition Oct 9, 2013 $49.9980% (91%)0 .. 20,0000%00:00 (00:00)
57 Blue Estate The Game Apr 8, 2015 $12.9980% (91%/59%)50,000 .. 100,0000%00:00 (00:00)
58 Wars and Warriors: Joan of Arc Feb 7, 2004 $6.9980% (91%/60%)0 .. 20,0000%00:00 (00:00)
59 RIVE: Wreck, Hack, Die, Retry! Sep 13, 2016 $14.9980% (91%)200,000 .. 500,0000.52%00:54 (00:35)
60 Khet 2.0 Oct 1, 2014 $9.9980% (91%)50,000 .. 100,0000%00:00 (00:00)
61 Angry Video Game Nerd II: ASSimilation Mar 29, 2016 $9.9980% (91%)20,000 .. 50,0000%00:00 (00:00)
62 Weird Hero Nov 18, 2016 $2.9977% (90%)0 .. 20,0000%00:00 (00:00)
63 Silent Storm Gold Edition Sep 9, 2004 $9.9977% (90%/83%)200,000 .. 500,0000%00:00 (00:00)
64 Apocalypse: Party's Over May 30, 2016 $4.9977% (90%)0 .. 20,0000%00:00 (00:00)
65 Headlander Jul 25, 2016 $19.9977% (90%/74%)100,000 .. 200,0000%00:00 (00:00)
66 Kohan: Ahriman's Gift Nov 6, 2001 $9.99N/A (N/A/79%)0 .. 20,0000%00:00 (00:00)
67 Planet of the Eyes Aug 24, 2015 $9.9977% (90%/66%)50,000 .. 100,0000%00:00 (00:00)
68 Kohan II: Kings of War Sep 21, 2004 $9.9977% (90%/81%)20,000 .. 50,0000%00:00 (00:00)
69 Superstatic Sep 15, 2015 $4.99N/A (N/A)0 .. 20,0000%00:00 (00:00)
70 Wild Guns Reloaded Jul 11, 2017 $19.9977% (90%)0 .. 20,0000%00:00 (00:00)
71 Death's Hangover Jan 20, 2017 $4.9977% (90%)20,000 .. 50,0004%02:07 (00:46)
72 Near Death Aug 2, 2016 $14.9977% (90%/70%)0 .. 20,0000%00:00 (00:00)
73 Ace of Seafood Apr 8, 2016 $11.9977% (90%)0 .. 20,0000%00:00 (00:00)
74 Spectromancer Oct 15, 2008 $9.9973% (89%)20,000 .. 50,0000%00:00 (00:00)
75 System Crash Mar 10, 2016 $14.9973% (89%)0 .. 20,0000%00:00 (00:00)
76 MoonBase Commander Aug 13, 2002 $5.9973% (89%/77%)20,000 .. 50,0000%00:00 (00:00)
77 Codename: Panzers, Phase Two Jul 21, 2005 $14.9973% (89%/80%)0 .. 20,0000%00:00 (00:00)
78 CastleStorm Jul 29, 2013 $9.9973% (89%/73%)100,000 .. 200,0000%00:00 (00:00)
79 Lethe - Episode One Aug 1, 2016 $14.9973% (89%)0 .. 20,0006.78%02:28 (02:31)
80 Reverse Crawl Sep 24, 2015 $5.9973% (89%)20,000 .. 50,0000%00:00 (00:00)
81 Zombo Buster Rising Oct 2, 2016 $1.9973% (89%)0 .. 20,0001.56%02:38 (00:52)
82 Amaranthine Apr 6, 2016 $2.9973% (89%)0 .. 20,0004.65%02:45 (01:30)
83 Sneaky Sneaky Nov 12, 2014 $4.9973% (89%/63%)0 .. 20,0000%00:00 (00:00)
84 Warhammer 40,000: Dawn of War – Winter Assault Jan 1, 2006 $12.9973% (89%)500,000 .. 1,000,0000.62%02:09 (02:08)
85 Fort Meow Jun 25, 2015 $7.9973% (89%)0 .. 20,0000%00:00 (00:00)
86 Atom Zombie Smasher Mar 14, 2011 $9.9971% (88%/75%)200,000 .. 500,0000%00:00 (00:00)
87 Graviteam Tactics: Mius-Front Mar 4, 2016 $34.9971% (88%)0 .. 20,0000%00:00 (00:00)
88 The Way May 20, 2016 $14.9971% (88%/67%)20,000 .. 50,0003.97%01:56 (01:48)
89 Lethal VR Nov 8, 2016 $14.9971% (88%/66%)0 .. 20,0000%00:00 (00:00)
90 Viking Squad Oct 4, 2016 $14.9971% (88%)0 .. 20,0000%00:00 (00:00)
91 Tcheco in the Castle of Lucio Jun 22, 2015 $0.9971% (88%)20,000 .. 50,0000.4%00:02 (00:00)
92 Anodyne Mar 22, 2013 $9.9971% (88%/75%)100,000 .. 200,0000.5%00:01 (00:00)
93 Battlepillars Gold Edition Apr 28, 2014 $4.9971% (88%)20,000 .. 50,0000%00:00 (00:00)
94 Super Furball May 13, 2014 $3.99N/A (N/A)0 .. 20,0000%00:00 (00:00)
95 Greed Corp Dec 10, 2010 $9.9971% (88%/76%)200,000 .. 500,0000%00:00 (00:00)
96 Earn to Die 2 May 5, 2016 $4.9971% (88%)0 .. 20,0000%00:00 (00:00)
97 The Fall May 30, 2014 $9.9971% (88%/76%)200,000 .. 500,0001%01:28 (01:18)
98 Avoid - Sensory Overload Apr 8, 2014 $4.9971% (88%)0 .. 20,0000%00:00 (00:00)
99 TRON 2.0 Aug 22, 2003 $9.9968% (87%/84%)50,000 .. 100,0000%00:00 (00:00)
100 Civilization IV: Warlords Jul 24, 2006 $4.9968% (87%/84%)1,000,000 .. 2,000,0000%00:00 (00:00)
101 Neon Shadow Aug 25, 2016 $4.99N/A (N/A)0 .. 20,0000%00:00 (00:00)
102 Syrian Warfare Feb 21, 2017 $14.9968% (87%)20,000 .. 50,0003.85%01:03 (00:21)
103 Sang-Froid - Tales of Werewolves Apr 5, 2013 Free68% (87%/79%)200,000 .. 500,0000%00:00 (00:00)
104 The Tiny Tale 2 Jan 30, 2015 $6.99N/A (N/A)0 .. 20,0000%00:00 (00:00)
105 Spooky Cats Jun 4, 2015 $2.9968% (87%)20,000 .. 50,0000%00:00 (00:00)
106 Shadow Blade: Reload Aug 10, 2015 $14.9968% (87%/70%)20,000 .. 50,0001.71%01:52 (01:14)
107 Blacksea Odyssey Jun 1, 2016 $9.9968% (87%/74%)0 .. 20,0000%00:00 (00:00)
108 Supreme Commander Feb 20, 2007 $12.9968% (87%/86%)500,000 .. 1,000,0000.2%00:11 (00:03)
109 Mr. Shifty Apr 13, 2017 $14.9968% (87%)50,000 .. 100,0002.9%02:02 (02:16)
110 N2O: Nitrous Oxide Jun 29, 2015 $4.99N/A (N/A)0 .. 20,0000%00:00 (00:00)
111 Magnifico Dec 2, 2014 $4.9965% (86%)50,000 .. 100,0000%00:00 (00:00)
112 Super Chibi Knight Jun 24, 2015 $4.9965% (86%)20,000 .. 50,0003.33%02:05 (01:23)
113 Ghost Master Aug 23, 2003 $4.9965% (86%/81%)100,000 .. 200,0000%00:00 (00:00)
114 Rush for Berlin Gold Oct 29, 2009 $4.9965% (86%/76%)20,000 .. 50,0000%00:00 (00:00)
115 Star Ruler Sep 20, 2010 $9.9965% (86%)100,000 .. 200,0000%00:00 (00:00)
116 Arcane Sorcery Sep 15, 2015 $4.99N/A (N/A)0 .. 20,0000%00:00 (00:00)
117 Meltdown Jun 5, 2014 $6.9965% (86%)50,000 .. 100,0000.87%00:10 (00:03)
118 Age of Wonders Shadow Magic Oct 2010 $9.9965% (86%/82%)100,000 .. 200,0000%00:00 (00:00)
119 Executive Assault Jul 17, 2015 $12.9965% (86%)20,000 .. 50,0003.03%00:30 (00:10)
120 The Haunted: Hells Reach Oct 24, 2011 $8.9965% (86%/51%)50,000 .. 100,0000%00:00 (00:00)
121 VelocityUltra Dec 12, 2013 $9.9965% (86%)50,000 .. 100,0000%00:00 (00:00)
122 Swords and Soldiers HD Dec 1, 2010 N/A65% (86%)50,000 .. 100,0001.06%00:11 (00:04)
123 Slash or Die Jun 3, 2016 $2.9963% (85%)50,000 .. 100,0000%00:00 (00:00)
124 ENSLAVED: Odyssey to the West Premium Edition Oct 24, 2013 $19.9963% (85%/70%)200,000 .. 500,0000.22%03:28 (01:09)
125 CRYPTARK Jun 20, 2017 $14.9963% (85%/80%)50,000 .. 100,0001.64%01:35 (00:31)
126 Dustoff Heli Rescue Mar 6, 2015 $3.9963% (85%)20,000 .. 50,0000%00:00 (00:00)
127 Interloper May 21, 2015 Free63% (85%/77%)50,000 .. 100,0000.36%03:09 (01:03)
128 NOBUNAGA'S AMBITION: Souzou (Traditional Chinese version) Aug 2014 $24.9963% (85%)20,000 .. 50,0000%00:00 (00:00)
129 Steel Rain Dec 3, 2015 $9.9963% (85%)0 .. 20,0000%00:00 (00:00)
130 ShootMania Storm Apr 10, 2013 $19.9963% (85%/76%)50,000 .. 100,0000%00:00 (00:00)
131 Ballistic Tanks Sep 20, 2016 $4.9963% (85%)0 .. 20,00016.67%01:00 (00:20)
132 The Men of Yoshiwara: Kikuya Oct 15, 2015 $29.9960% (84%)0 .. 20,0000%00:00 (00:00)
133 Last Knight: Rogue Rider Edition Oct 3, 2014 $7.9960% (84%)20,000 .. 50,0000%00:00 (00:00)
134 Fat Chicken Dec 4, 2014 $9.99N/A (N/A)0 .. 20,0000%00:00 (00:00)
135 Western 1849 Reloaded Feb 10, 2017 $4.9960% (84%)0 .. 20,0000%00:00 (00:00)
136 Gurgamoth Feb 16, 2016 $4.9960% (84%)50,000 .. 100,0000.67%02:35 (00:51)
137 Conflict Desert Storm Sep 13, 2002 $6.9960% (84%/56%)20,000 .. 50,0000%00:00 (00:00)
138 Foresight Nov 28, 2014 $4.99N/A (N/A)0 .. 20,0003.19%02:04 (01:43)
139 Legend (1994) Apr 1, 1994 $4.99N/A (N/A)0 .. 20,0000%00:00 (00:00)
140 Battle Group 2 Jun 13, 2014 $7.9960% (84%)50,000 .. 100,0000.85%00:01 (00:00)
141 Child Of Ault Jan 24, 2017 $9.99N/A (N/A)0 .. 20,0000%00:00 (00:00)
142 Rooks Keep Dec 5, 2014 $7.9960% (84%)20,000 .. 50,0000%00:00 (00:00)
143 Yomi May 8, 2015 $14.9960% (84%)0 .. 20,0000%00:00 (00:00)
144 Act of War: Direct Action Mar 14, 2005 $2.9960% (84%/82%)20,000 .. 50,0000%00:00 (00:00)
145 Eador: Genesis Aug 7, 2009 $5.9960% (84%)20,000 .. 50,0000%00:00 (00:00)
146 Delta Force 2 Oct 31, 1999 $4.9957% (83%)50,000 .. 100,0002.56%01:57 (00:39)
147 Advanced Tactics Gold Apr 12, 2011 $29.9957% (83%)0 .. 20,0000%00:00 (00:00)
148 Galaxy Admirals Jan 17, 2017 $1.9957% (83%)50,000 .. 100,0000%00:00 (00:00)
149 GIBZ Apr 7, 2017 $7.9957% (83%)0 .. 20,0000%00:00 (00:00)
150 Crush Your Enemies Jul 13, 2016 $9.9957% (83%/63%)20,000 .. 50,0006.67%02:03 (01:39)
151 Bulletstorm: Full Clip Edition Apr 7, 2017 $39.9957% (83%/76%)20,000 .. 50,0004.65%00:15 (00:09)
152 Orbital Gear Aug 7, 2014 $9.9957% (83%/59%)200,000 .. 500,0001.12%02:01 (01:40)
153 Sudden Strike 2 Gold Aug 30, 2002 $5.9957% (83%)20,000 .. 50,0000%00:00 (00:00)
154 TY the Tasmanian Tiger 4 Sep 17, 2015 $5.9957% (83%)0 .. 20,0002.7%00:04 (00:01)
155 Rack N Ruin Sep 1, 2015 $9.9957% (83%)0 .. 20,0000%00:00 (00:00)
156 NOBUNAGA'S AMBITION: Sphere of Influence Sep 1, 2015 $59.9957% (83%/70%)20,000 .. 50,0000%00:00 (00:00)
157 Ace of Protectors Jun 27, 2016 $1.99N/A (N/A)0 .. 20,0003.57%00:49 (00:32)
158 Disciples Sacred Lands Gold Oct 4, 1999 $7.9957% (83%)50,000 .. 100,0003.39%00:30 (00:19)
159 Square Brawl Oct 22, 2015 $4.9955% (82%)0 .. 20,0000%00:00 (00:00)
160 PixelJunk Shooter Ultimate Oct 21, 2015 $9.9955% (82%)20,000 .. 50,0003.77%04:14 (02:40)
161 Shadow Ops: Red Mercury Sep 17, 2004 $6.9955% (82%/61%)20,000 .. 50,0000%00:00 (00:00)
162 htoL#NiQ: The Firefly Diary / htoL#NiQ-ホタルノニッキ- May 18, 2016 $9.9955% (82%)0 .. 20,0000%00:00 (00:00)
163 She Wants Me Dead May 13, 2016 $7.9955% (82%)0 .. 20,0000%00:00 (00:00)
164 After The End: The Harvest Jun 2, 2017 $4.9955% (82%)20,000 .. 50,0000%00:00 (00:00)
165 Fleet Command May 15, 1999 $9.9955% (82%)20,000 .. 50,0000%00:00 (00:00)
166 Weapon of Choice Sep 23, 2015 $4.99N/A (N/A)0 .. 20,0003.85%00:56 (00:37)
167 Anomaly 2 May 15, 2013 $14.9953% (81%/77%)200,000 .. 500,0000.54%03:14 (01:27)
168 Fate of the World Feb 28, 2011 $9.9953% (81%/70%)50,000 .. 100,0000%00:00 (00:00)
169 Graviteam Tactics: Operation Star Mar 22, 2012 $29.9953% (81%)0 .. 20,0000%00:00 (00:00)
170 Jim Power -The Lost Dimension Dec 10, 1993 $4.99N/A (N/A)0 .. 20,0000%00:00 (00:00)
171 In Verbis Virtus Apr 3, 2015 $19.9953% (81%)50,000 .. 100,0001.25%00:06 (00:02)
172 Age of Wonders Oct 2010 $5.9953% (81%)100,000 .. 200,0000%00:00 (00:00)
173 Toadled Sep 22, 2016 $0.9953% (81%)50,000 .. 100,0000.32%00:11 (00:03)
174 Junk Jack Nov 30, 2016 $14.9953% (81%)0 .. 20,0000%00:00 (00:00)
175 Enemy Mind Jun 6, 2014 $9.9953% (81%)200,000 .. 500,0000.24%00:01 (00:00)
176 Blade Arcus from Shining: Battle Arena Jul 28, 2016 $29.9953% (81%)0 .. 20,0000%00:00 (00:00)
177 rymdkapsel Jan 30, 2014 $7.9951% (80%/77%)0 .. 20,0000%00:00 (00:00)
178 Bloodsports.TV Mar 30, 2015 $9.9951% (80%/69%)50,000 .. 100,0000%00:00 (00:00)
179 Interplanetary May 12, 2015 N/A51% (80%)100,000 .. 200,0000%00:00 (00:00)
180 Age of Gladiators Feb 25, 2016 $9.9951% (80%)20,000 .. 50,0000%00:00 (00:00)
181 Fantasy Wars Aug 6, 2010 $4.9951% (80%/67%)50,000 .. 100,0000%00:00 (00:00)
182 Ninjahtic Jul 6, 2015 $1.9951% (80%)0 .. 20,0000%00:00 (00:00)
183 Perimeter May 21, 2004 $3.9951% (80%/77%)20,000 .. 50,0000.8%00:01 (00:00)
184 Anomaly Warzone Earth Mobile Campaign Nov 6, 2013 $4.9951% (80%)100,000 .. 200,0000%00:00 (00:00)
185 Gun Metal Sep 23, 2003 $2.9951% (80%)200,000 .. 500,0000.53%02:56 (02:02)
186 Afghanistan '11 Mar 23, 2017 $29.9951% (80%)0 .. 20,0000%00:00 (00:00)
187 Conquest of Elysium 3 Oct 24, 2012 $9.9951% (80%)20,000 .. 50,0000%00:00 (00:00)
188 Dominions 3: The Awakening Sep 10, 2013 $19.9951% (80%/82%)0 .. 20,0000%00:00 (00:00)
189 Making History: The Calm & the Storm Mar 13, 2007 $4.9951% (80%/70%)50,000 .. 100,0001.22%00:01 (00:00)
190 Legends of Callasia Jun 10, 2016 $14.9951% (80%)50,000 .. 100,0000%00:00 (00:00)
191 Hail to the King: Deathbat Oct 30, 2014 $5.9951% (80%)0 .. 20,0000%00:00 (00:00)
192 Supreme Ruler 2020 Gold Jun 17, 2008 $9.9951% (80%/65%)50,000 .. 100,0000%00:00 (00:00)
193 Gatling Gears Aug 30, 2011 $9.9951% (80%)20,000 .. 50,0000%00:00 (00:00)
194 Trigger Runners Mar 3, 2016 $1.9951% (80%)0 .. 20,0000%00:00 (00:00)
195 7,62 High Calibre Aug 24, 2007 $4.9951% (80%)50,000 .. 100,0000%00:00 (00:00)
196 Cultures - 8th Wonder of the World Mar 26, 2015 $4.9951% (80%)50,000 .. 100,0000%00:00 (00:00)
197 Run Rabbit Run Mar 31, 2016 $3.9951% (80%)0 .. 20,0000%00:00 (00:00)
198 ROD: Revolt Of Defense Aug 12, 2016 $0.9951% (80%)20,000 .. 50,0004.76%00:30 (00:10)
199 Monday Night Combat Jan 24, 2011 $4.9951% (80%/82%)200,000 .. 500,0000.44%00:46 (00:15)
200 Advent Rising Aug 9, 2005 $9.9948% (79%/70%)20,000 .. 50,0001.22%00:08 (00:02)
201 Vietnam ‘65 Mar 5, 2015 $9.9948% (79%/81%)0 .. 20,0000%00:00 (00:00)
202 Star Wolves 3: Civil War Mar 2, 2010 $4.9948% (79%)100,000 .. 200,0000%00:00 (00:00)
203 Envoy Mar 17, 2016 $4.9948% (79%)50,000 .. 100,0000.4%00:44 (00:14)
204 Locoland Nov 22, 2003 $4.9948% (79%)0 .. 20,0000%00:00 (00:00)
205 David. Mar 14, 2014 $1.9948% (79%)50,000 .. 100,0000.62%01:26 (00:28)
206 TASTEE: Lethal Tactics May 10, 2016 $14.9948% (79%)20,000 .. 50,0001.15%01:38 (00:32)
207 TRON RUN/r Feb 16, 2016 $19.9948% (79%)0 .. 20,0006.67%00:10 (00:03)
208 Fortified Feb 3, 2016 $14.9948% (79%)200,000 .. 500,00057%04:27 (05:03)
209 Battle Mages: Sign of Darkness Apr 13, 2006 $4.9948% (79%)0 .. 20,0000%00:00 (00:00)
210 Demolition Inc. Sep 19, 2011 $5.9948% (79%)50,000 .. 100,0000%00:00 (00:00)
211 Nuclear Dawn Sep 26, 2011 $9.9948% (79%/71%)200,000 .. 500,0000%00:00 (00:00)
212 Klang Sep 22, 2016 $14.9948% (79%/71%)0 .. 20,0000%00:00 (00:00)
213 Defense Zone 3 Ultra HD Dec 14, 2016 $2.9948% (79%)0 .. 20,0000%00:00 (00:00)
214 Battlezone Gold Edition May 11, 2017 $34.9948% (79%)0 .. 20,0000%00:00 (00:00)
215 Protoshift Jan 15, 2016 $0.9948% (79%)0 .. 20,0000%00:00 (00:00)
216 Zombie Party Jun 10, 2016 $9.9948% (79%)100,000 .. 200,0004.35%03:23 (02:15)
217 Ironcast Mar 26, 2015 $14.9948% (79%/75%)20,000 .. 50,0000%00:00 (00:00)
218 Caster Mar 19, 2009 $1.9948% (79%)200,000 .. 500,0000.23%02:53 (00:57)
219 Zeno Clash 2 Apr 30, 2013 $14.9948% (79%)200,000 .. 500,0001.5%00:52 (01:40)
220 Tiki Man Jun 4, 2015 $0.9948% (79%)20,000 .. 50,0001.55%00:46 (00:30)
221 Deadly 30 Jan 8, 2014 $4.9946% (78%)100,000 .. 200,0000.41%04:16 (01:25)
222 Warhammer 40,000: Armageddon Nov 26, 2014 $39.9946% (78%/68%)20,000 .. 50,0004%38:18 (12:46)
223 Tank Destroyer Mar 9, 2017 $2.9946% (78%)20,000 .. 50,0001.41%02:01 (00:40)
224 King of Dragon Pass Jul 28, 2015 $11.9946% (78%)20,000 .. 50,0000.79%09:35 (03:11)
225 Making History II: The War of the World Jun 22, 2010 $14.9946% (78%/38%)20,000 .. 50,0000%00:00 (00:00)
226 Star Realms Mar 8, 2016 Free46% (78%)100,000 .. 200,0001.61%00:10 (00:03)
227 Vector Strain Dec 9, 2015 $4.99N/A (N/A)20,000 .. 50,0000%00:00 (00:00)
228 Mysterium: A Psychic Clue Game Jan 12, 2017 $9.9946% (78%)50,000 .. 100,0000%00:00 (00:00)
229 Aeon Command Jul 3, 2014 $2.9946% (78%)20,000 .. 50,0000%00:00 (00:00)
230 Pharaonic Apr 28, 2016 $14.9946% (78%)20,000 .. 50,0000%00:00 (00:00)
231 Mold on Pizza Sep 25, 2015 $5.9946% (78%)0 .. 20,0000%00:00 (00:00)
232 Starscape Mar 27, 2003 $7.9946% (78%)20,000 .. 50,0000%00:00 (00:00)
233 PAC-MAN and the Ghostly Adventures Oct 29, 2013 $19.9946% (78%)0 .. 20,0000%00:00 (00:00)
234 Zombie Killtime Aug 4, 2015 $1.99N/A (N/A)0 .. 20,0000%00:00 (00:00)
235 The Legend of Dark Witch Dec 1, 2015 $4.9946% (78%)20,000 .. 50,0000%00:00 (00:00)
236 Strike Suit Zero: Director's Cut Apr 8, 2014 $19.9946% (78%)20,000 .. 50,0000%00:00 (00:00)
237 Umihara Kawase Shun: Steam Edition Nov 24, 2015 $11.99N/A (N/A)0 .. 20,0000%00:00 (00:00)
238 Dead Rising 2: Off the Record Oct 11, 2011 $19.9946% (78%/66%)200,000 .. 500,0000.92%10:08 (06:47)
239 Olympia Rising Jul 23, 2015 $4.9945% (77%)0 .. 20,0000%00:00 (00:00)
240 The Political Machine 2016 Feb 4, 2016 $9.9945% (77%)50,000 .. 100,0000.9%00:53 (00:17)
241 Curse of the Crescent Isle DX Aug 21, 2015 $4.9945% (77%)0 .. 20,0000%00:00 (00:00)
242 A Blind Legend Apr 7, 2016 $6.9945% (77%)0 .. 20,0000%00:00 (00:00)
243 Chaser Aug 22, 2003 $4.9945% (77%/66%)100,000 .. 200,0000%00:00 (00:00)
244 Starchaser: Priestess of the Night Sky Jul 24, 2015 $9.99N/A (N/A)0 .. 20,0000%00:00 (00:00)
245 Heroes of Might & Magic V: Hammers of Fate Nov 14, 2006 $9.9945% (77%/66%)100,000 .. 200,0000%00:00 (00:00)
246 A.R.E.S. Extinction Agenda EX Oct 3, 2014 $9.9945% (77%)0 .. 20,0000%00:00 (00:00)
247 Dangerous Waters Feb 7, 2006 $14.9945% (77%/82%)50,000 .. 100,0000%00:00 (00:00)
248 Sky Gamblers: Storm Raiders Jan 7, 2015 $9.9945% (77%)0 .. 20,0000%00:00 (00:00)
249 McDROID Sep 5, 2014 $9.9945% (77%)0 .. 20,0000%00:00 (00:00)
250 Bet On Soldier Sep 26, 2005 $7.9945% (77%)100,000 .. 200,0000.95%00:20 (00:06)
251 Riddled Corpses Jun 2, 2015 $7.9943% (76%)20,000 .. 50,0001.28%00:06 (00:02)
252 Spirits of Xanadu Mar 26, 2015 $4.9943% (76%)20,000 .. 50,0002.67%02:09 (01:25)
253 Monster Monpiece Mar 14, 2017 $19.9943% (76%)0 .. 20,0005.88%04:07 (02:44)
254 BloodRayne Sep 9, 2003 $9.9943% (76%/65%)50,000 .. 100,0000.82%00:05 (00:01)
255 Warlords Battlecry III May 17, 2004 $9.9943% (76%/73%)0 .. 20,0000%00:00 (00:00)
256 Cashtronauts Sep 1, 2016 $2.9943% (76%)0 .. 20,0000%00:00 (00:00)
257 Extravaganza Rising Jul 21, 2016 N/AN/A (N/A)20,000 .. 50,0000%00:00 (00:00)
258 Victory At Sea Aug 8, 2014 $24.9943% (76%)20,000 .. 50,0000%00:00 (00:00)
259 Fist Puncher Jun 21, 2013 $9.9943% (76%/73%)20,000 .. 50,0000%00:00 (00:00)
260 Z Jul 4, 2014 $6.9943% (76%)100,000 .. 200,0002.9%04:45 (05:07)
261 Velocity 2X Aug 19, 2015 $19.9943% (76%)0 .. 20,0000%00:00 (00:00)
262 Rocketbirds 2 Evolution Jan 26, 2017 $9.9943% (76%)0 .. 20,0001.82%00:01 (00:00)
263 Rocket Knight May 11, 2010 $14.9943% (76%/63%)0 .. 20,0000%00:00 (00:00)
264 Livelock Aug 30, 2016 $9.9943% (76%/73%)20,000 .. 50,0000%00:00 (00:00)
265 Painkiller Hell & Damnation Oct 31, 2012 $19.9943% (76%/64%)500,000 .. 1,000,0000.51%00:24 (00:16)
266 Corgi Warlock Dec 3, 2015 $1.9943% (76%)20,000 .. 50,0000%00:00 (00:00)
267 Heroes of Arca Feb 16, 2017 Free43% (76%)0 .. 20,0000%00:00 (00:00)
268 Deadlings: Rotten Edition Nov 11, 2014 $3.9943% (76%)50,000 .. 100,0000.67%00:08 (00:02)
269 Onechanbara Z2: Chaos Jun 2, 2016 $39.9941% (75%)0 .. 20,0000%00:00 (00:00)
270 Zoo Empire Aug 1, 2004 $6.99N/A (N/A/59%)0 .. 20,0000%00:00 (00:00)
271 Perimeter: Emperor's Testament Aug 29, 2006 $3.99N/A (N/A/72%)20,000 .. 50,0000%00:00 (00:00)
272 Commander: The Great War Nov 12, 2012 $29.9941% (75%)0 .. 20,0000%00:00 (00:00)
273 CivCity: Rome Jul 24, 2006 $9.9941% (75%/67%)50,000 .. 100,0000%00:00 (00:00)
274 Master Reboot Oct 29, 2013 $14.9941% (75%/59%)50,000 .. 100,0000%00:00 (00:00)
275 Civil War II Sep 17, 2013 $39.9941% (75%)0 .. 20,0000%00:00 (00:00)
276 Hunting Unlimited 2008 Sep 1, 2007 $9.99N/A (N/A)20,000 .. 50,0000%00:00 (00:00)
277 BossConstructor Oct 24, 2016 $14.9941% (75%)0 .. 20,0000%00:00 (00:00)
278 FIVE: Champions of Canaan Sep 27, 2016 $3.9941% (75%)0 .. 20,0000%00:00 (00:00)
279 Pick a Hero Jun 9, 2016 $0.99N/A (N/A)0 .. 20,0000%00:00 (00:00)
280 AirMech Command Mar 8, 2017 $19.9941% (75%)0 .. 20,0000%00:00 (00:00)
281 Othello Aug 5, 2016 $9.9941% (75%)0 .. 20,0000%00:00 (00:00)
282 The Superfluous May 19, 2017 $4.99N/A (N/A)0 .. 20,0000%00:00 (00:00)
283 Smell Of Death Jul 4, 2016 $9.9941% (75%)0 .. 20,0000%00:00 (00:00)
284 WARSHIFT Oct 12, 2016 $12.9941% (75%)20,000 .. 50,0000%00:00 (00:00)
285 Albino Lullaby: Episode 1 Sep 15, 2015 $9.9941% (75%)20,000 .. 50,0000%00:00 (00:00)
286 GEARGUNS Tank offensive Sep 22, 2016 $7.9941% (75%)20,000 .. 50,0002.6%03:19 (01:22)
287 Platformines Mar 28, 2014 $9.9941% (75%/67%)100,000 .. 200,0000%00:00 (00:00)
288 Phoning Home Feb 7, 2017 $4.5939% (74%/61%)20,000 .. 50,0002.74%02:02 (01:21)
289 LEGO Indiana Jones 2: The Adventure Continues Feb 18, 2010 $19.9939% (74%/66%)50,000 .. 100,0002.5%05:49 (01:56)
290 Battle Time Sep 29, 2016 $0.9939% (74%)50,000 .. 100,0000%00:00 (00:00)
291 Retrovirus Jan 31, 2013 $9.9939% (74%/70%)20,000 .. 50,0000%00:00 (00:00)
292 TableTop Soccer Apr 22, 2016 $0.9939% (74%)0 .. 20,0000%00:00 (00:00)
293 Making History: The Great War Jan 29, 2015 $29.9939% (74%)20,000 .. 50,0000%00:00 (00:00)
294 Bubsy Two-Fur Jan 1, 1993 $4.9939% (74%)0 .. 20,0000%00:00 (00:00)
295 FEIST Jul 23, 2015 $9.9939% (74%)20,000 .. 50,0000%00:00 (00:00)
296 Divinity: Dragon Commander Aug 6, 2013 $39.9939% (74%)200,000 .. 500,0000%00:00 (00:00)
297 Vampire of the Sands Jul 17, 2015 $4.9939% (74%)20,000 .. 50,0001.27%02:14 (00:44)
298 Banzai Escape Mar 16, 2016 $5.9939% (74%)0 .. 20,0000%00:00 (00:00)
299 Sid Meier’s Ace Patrol Aug 27, 2013 $4.9939% (74%)500,000 .. 1,000,0000.5%02:09 (01:26)
300 Ubersoldier II Jul 22, 2008 $9.9939% (74%/62%)100,000 .. 200,0001.32%05:24 (01:48)
301 Distant Worlds: Universe May 23, 2014 $59.9939% (74%/81%)50,000 .. 100,0000%00:00 (00:00)
302 Death by Game Show Jan 22, 2016 $9.9937% (73%)20,000 .. 50,0002.2%01:13 (00:48)
303 Alarameth TD Jun 23, 2015 $4.99N/A (N/A)0 .. 20,0000%00:00 (00:00)
304 VRZ: Torment Jun 9, 2016 $9.9937% (73%)0 .. 20,0000%00:00 (00:00)
305 Supreme Ruler Ultimate Oct 17, 2014 $19.9937% (73%)20,000 .. 50,0000%00:00 (00:00)
306 Viktor Jun 13, 2014 $7.9937% (73%)20,000 .. 50,0000%00:00 (00:00)
307 The Aquatic Adventure of the Last Human Jan 19, 2016 $9.9937% (73%/76%)0 .. 20,0000%00:00 (00:00)
308 Cross of the Dutchman Sep 10, 2015 $8.9937% (73%/59%)20,000 .. 50,0000%00:00 (00:00)
309 Rex Rocket Aug 5, 2014 $4.9937% (73%)20,000 .. 50,0000%00:00 (00:00)
310 Tom Clancy's EndWar Feb 25, 2009 $9.9935% (72%/68%)50,000 .. 100,0000%00:00 (00:00)
311 rooMaze Mar 3, 2017 $1.9935% (72%)100,000 .. 200,0000.52%00:01 (00:00)
312 Battle Fleet 2 Nov 20, 2014 $14.9935% (72%)20,000 .. 50,0000%00:00 (00:00)
313 Auro: A Monster-Bumping Adventure Apr 13, 2016 $6.9935% (72%)0 .. 20,0000%00:00 (00:00)
314 Cuban Missile Crisis May 6, 2005 $4.9935% (72%)20,000 .. 50,0000%00:00 (00:00)
315 Sengoku Jidai: Shadow of the Shogun May 19, 2016 $29.9935% (72%/80%)0 .. 20,0000%00:00 (00:00)
316 Pike and Shot : Campaigns Aug 13, 2015 $39.9935% (72%)0 .. 20,0000%00:00 (00:00)
317 King Arthur - The Role-playing Wargame Nov 24, 2009 $9.9935% (72%)200,000 .. 500,0000%00:00 (00:00)
318 Deadnaut Nov 27, 2014 $9.9935% (72%)0 .. 20,0000%00:00 (00:00)
319 Fatal Fight Jun 10, 2016 $2.9935% (72%)0 .. 20,0000%00:00 (00:00)
320 Lux Delux May 1, 2015 $9.9935% (72%)20,000 .. 50,0000%00:00 (00:00)
321 Smithy Jun 3, 2016 $3.99N/A (N/A)50,000 .. 100,0000%00:00 (00:00)
322 Pongo May 14, 2015 $0.9935% (72%)50,000 .. 100,0000.81%00:03 (00:01)
323 Rise & Shine Jan 13, 2017 $14.9935% (72%)20,000 .. 50,0000%00:00 (00:00)
324 Civil War: Battle of Petersburg Feb 8, 2017 $0.9935% (72%)0 .. 20,0000%00:00 (00:00)
325 Wyv and Keep: The Temple of the Lost Idol Aug 8, 2014 $14.9935% (72%)20,000 .. 50,0001.64%03:18 (01:06)
326 Gold Rush! Anniversary Nov 7, 2014 $5.9935% (72%)100,000 .. 200,0001.54%02:47 (02:36)
327 Lost Planet: Extreme Condition Jun 26, 2007 $14.9935% (72%/66%)200,000 .. 500,0000%00:00 (00:00)
328 Panzer Tactics HD May 22, 2014 $9.9935% (72%/69%)20,000 .. 50,0000%00:00 (00:00)
329 There Came an Echo Feb 24, 2015 $14.9935% (72%/58%)20,000 .. 50,0000%00:00 (00:00)
330 Warp Mar 21, 2012 $9.9935% (72%)20,000 .. 50,0000%00:00 (00:00)
331 Cast of the Seven Godsends - Redux Jul 20, 2015 $9.9935% (72%)20,000 .. 50,0000%00:00 (00:00)
332 Hot Tin Roof: The Cat That Wore A Fedora Feb 20, 2015 $14.9935% (72%/66%)100,000 .. 200,0000%00:00 (00:00)
333 Airship Dragoon Aug 26, 2014 $19.99N/A (N/A)0 .. 20,0000%00:00 (00:00)
334 Heaven Forest NIGHTS Mar 14, 2017 $0.9935% (72%)100,000 .. 200,0001.22%01:01 (01:17)
335 Space Colony: Steam Edition Apr 30, 2015 $14.9934% (71%/74%)20,000 .. 50,0001.59%03:12 (01:04)
336 A.R.E.S.: Extinction Agenda Jan 20, 2011 $4.9934% (71%/68%)100,000 .. 200,0000.65%04:04 (01:21)
337 Revolution Under Siege Gold Jul 2, 2015 $24.9934% (71%)0 .. 20,0000%00:00 (00:00)
338 Disney Planes Aug 6, 2013 $19.99N/A (N/A)0 .. 20,0000%00:00 (00:00)
339 Elliot Quest Nov 10, 2014 $9.9934% (71%)20,000 .. 50,0000%00:00 (00:00)
340 Elven Legacy Apr 7, 2009 $4.9934% (71%/71%)50,000 .. 100,0000%00:00 (00:00)
341 REDCON Apr 22, 2016 $5.9934% (71%)0 .. 20,0009.09%00:43 (00:14)
342 Zombie Camp Aug 1, 2016 $1.99N/A (N/A)0 .. 20,0000%00:00 (00:00)
343 The Last Federation Apr 18, 2014 $19.9934% (71%/72%)50,000 .. 100,0000%00:00 (00:00)
344 Pigmentone Jul 8, 2016 $1.99N/A (N/A)0 .. 20,00011.11%02:17 (01:30)
345 Jagged Alliance 2 - Wildfire Mar 8, 2004 $6.9932% (70%)200,000 .. 500,0000.73%04:14 (05:05)
346 Little King's Story Aug 5, 2016 $19.9932% (70%/62%)0 .. 20,0000%00:00 (00:00)
347 Wildlife Park 2 - Crazy Zoo Mar 30, 2007 $3.99N/A (N/A)0 .. 20,0000%00:00 (00:00)
348 Alea Jacta Est Sep 27, 2012 $24.9932% (70%)20,000 .. 50,0000%00:00 (00:00)
349 BitMaster Oct 12, 2016 $2.9932% (70%)200,000 .. 500,0000.61%00:16 (00:08)
350 Strategy & Tactics: Wargame Collection Apr 22, 2016 $9.9932% (70%)20,000 .. 50,0002.48%02:12 (02:11)
351 The Nightmare Cooperative Jul 16, 2014 $4.9931% (69%)50,000 .. 100,0000%00:00 (00:00)
352 1775: Rebellion Sep 29, 2016 $24.99N/A (N/A)0 .. 20,0000%00:00 (00:00)
353 Quick Slick Deadly Sep 21, 2015 $1.9931% (69%)20,000 .. 50,0001%02:03 (00:41)
354 UnSummoning: the Spectral Horde Dec 21, 2015 $3.99N/A (N/A)0 .. 20,0000%00:00 (00:00)
355 FIVE: Guardians of David Nov 24, 2015 $9.9931% (69%/66%)0 .. 20,0000%00:00 (00:00)
356 Brigade E5: New Jagged Union Oct 17, 2006 $3.9931% (69%/41%)0 .. 20,0000%00:00 (00:00)
357 YAIBA: NINJA GAIDEN Z Mar 21, 2014 $29.9931% (69%/49%)20,000 .. 50,0000%00:00 (00:00)
358 Sol 0: Mars Colonization Jan 15, 2016 $3.9931% (69%)20,000 .. 50,0000%00:00 (00:00)
359 Collapse Sep 25, 2008 $19.9931% (69%)50,000 .. 100,0001.37%00:01 (00:00)
360 Guns n Zombies Oct 30, 2014 $7.9931% (69%)100,000 .. 200,0001.23%00:57 (00:27)
361 Spud's Quest Jul 31, 2014 $7.99N/A (N/A)0 .. 20,00012.5%05:32 (01:50)
362 Scourge of War: Waterloo Nov 19, 2015 $49.9931% (69%)0 .. 20,0000%00:00 (00:00)
363 Incandescent Jun 30, 2015 $0.9931% (69%)20,000 .. 50,0000%00:00 (00:00)
364 Warrior Kings Apr 13, 2002 $9.9931% (69%/73%)20,000 .. 50,0000%00:00 (00:00)
365 Fair Strike Feb 5, 2004 $3.99N/A (N/A/56%)0 .. 20,0000%00:00 (00:00)
366 Toren May 11, 2015 $9.9929% (68%/57%)50,000 .. 100,0001.28%01:31 (01:00)
367 Theatre of War 2: Africa 1943 Apr 24, 2009 $4.9929% (68%/63%)100,000 .. 200,0000%00:00 (00:00)
368 Space Food Truck Mar 25, 2016 $9.9929% (68%)0 .. 20,0000%00:00 (00:00)
369 Toy Odyssey: The Lost and Found Sep 20, 2016 $14.9929% (68%/66%)50,000 .. 100,0001.69%01:47 (01:15)
370 RISK: Factions Mar 8, 2011 $9.9929% (68%/77%)50,000 .. 100,0002.78%00:24 (00:08)
371 Warhammer 40,000: Armageddon - Da Orks Aug 18, 2016 $19.99N/A (N/A)0 .. 20,0000%00:00 (00:00)
372 ManaCollect Apr 17, 2015 $6.9929% (68%)0 .. 20,0000%00:00 (00:00)
373 Stonerid Dec 18, 2013 $4.9929% (68%)20,000 .. 50,0000.9%00:30 (00:10)
374 Zombie City Defense 2 Aug 19, 2016 $9.9929% (68%)0 .. 20,0000%00:00 (00:00)
375 Survivor Squad: Gauntlets Nov 16, 2015 $4.9929% (68%)20,000 .. 50,0000%00:00 (00:00)
376 The Hive Aug 25, 2016 $9.9929% (68%)20,000 .. 50,0000%00:00 (00:00)
377 Bedlam Oct 13, 2015 $12.9928% (67%/54%)100,000 .. 200,0000%00:00 (00:00)
378 Chainsaw Warrior Oct 7, 2013 $4.9928% (67%)100,000 .. 200,0000%00:00 (00:00)
379 7th Legion Jan 1, 1997 $6.9928% (67%)20,000 .. 50,0000%00:00 (00:00)
380 Mad Combat Marines Jul 13, 2016 $0.9928% (67%)20,000 .. 50,0000%00:00 (00:00)
381 Nomad Fleet Jul 14, 2015 $9.9928% (67%)20,000 .. 50,0008.7%00:46 (00:30)
382 Kill The Plumber Dec 31, 2015 $4.9928% (67%)0 .. 20,0000%00:00 (00:00)
383 Zafehouse: Diaries Sep 6, 2013 $1.9928% (67%)50,000 .. 100,0000%00:00 (00:00)
384 March of the Eagles Feb 18, 2013 $19.9926% (66%/71%)50,000 .. 100,0000%00:00 (00:00)
385 Sky To Fly: Faster Than Wind Mar 25, 2016 $3.9926% (66%)0 .. 20,0000%00:00 (00:00)
386 1849 May 8, 2014 $14.9926% (66%)20,000 .. 50,0000%00:00 (00:00)
387 Commander Cool 2 Dec 17, 2015 $2.9926% (66%)20,000 .. 50,0003.49%01:15 (01:13)
388 Royal Defense Nov 6, 2014 $4.9926% (66%)50,000 .. 100,0000.9%01:28 (00:58)
389 The Living Dungeon Nov 2, 2015 $12.9926% (66%)0 .. 20,0000%00:00 (00:00)
390 Platypus II Mar 17, 2007 $6.9926% (66%)200,000 .. 500,0001.38%01:11 (01:05)
391 Zombie Tycoon 2: Brainhov's Revenge Dec 9, 2013 $4.9926% (66%)50,000 .. 100,0000%00:00 (00:00)
392 Men of War: Condemned Heroes Apr 12, 2012 $7.9926% (66%/57%)100,000 .. 200,0000%00:00 (00:00)
393 Sengoku Sep 15, 2011 $9.9926% (66%/70%)100,000 .. 200,0000%00:00 (00:00)
394 Scourge: Outbreak Apr 2, 2014 $7.9926% (66%)100,000 .. 200,0000%00:00 (00:00)
395 Frozen Synapse Prime Nov 14, 2014 $24.9925% (65%/83%)100,000 .. 200,0000%00:00 (00:00)
396 Spirit of War Mar 12, 2015 $9.9925% (65%)20,000 .. 50,0001.79%04:49 (01:36)
397 Theatre of War 2: Kursk 1943 Mar 9, 2010 $4.9925% (65%)50,000 .. 100,0000%00:00 (00:00)
398 Hunters Of The Dead Sep 4, 2014 $4.9925% (65%)20,000 .. 50,0000%00:00 (00:00)
399 Malebolgia May 6, 2015 $12.9925% (65%)0 .. 20,0000%00:00 (00:00)
400 Devil's Dare 悪魔の挑戦 Oct 21, 2014 $12.9925% (65%)20,000 .. 50,0000%00:00 (00:00)
401 Marauder Sep 10, 2009 $9.9925% (65%)50,000 .. 100,0000%00:00 (00:00)
402 Assassin’s Creed Chronicles: India Jan 12, 2016 $9.9925% (65%)20,000 .. 50,0004.65%02:24 (01:36)
403 8-Bit Commando Jul 27, 2011 $2.9925% (65%)50,000 .. 100,0000%00:00 (00:00)
404 Infinity Runner Jul 14, 2014 $6.9925% (65%/56%)0 .. 20,0000%00:00 (00:00)
405 Ground Breakers Jun 15, 2016 $4.99N/A (N/A)0 .. 20,0002.33%02:31 (00:50)
406 Rise: Battle Lines Nov 17, 2015 $1.9924% (64%)0 .. 20,0000%00:00 (00:00)
407 Zoo Rampage Jul 9, 2014 $3.9924% (64%)0 .. 20,0000%00:00 (00:00)
408 Disney Pirates of the Caribbean: At Worlds End May 22, 2007 $19.9924% (64%)0 .. 20,0004.55%02:06 (00:42)
409 A Game of Dwarves Oct 23, 2012 $9.9924% (64%/60%)50,000 .. 100,0000%00:00 (00:00)
410 Double Dragon IV Jan 30, 2017 $6.9924% (64%/50%)0 .. 20,0000%00:00 (00:00)
411 Battle Worlds: Kronos Nov 4, 2013 $19.9924% (64%/71%)20,000 .. 50,0000%00:00 (00:00)
412 The Seven Years War (1756-1763) Oct 30, 2015 $19.9924% (64%)0 .. 20,0000%00:00 (00:00)
413 Kaiju-A-GoGo Apr 23, 2015 $9.9924% (64%)20,000 .. 50,0001.79%01:49 (00:36)
414 Link Apr 22, 2016 $4.99N/A (N/A)0 .. 20,0000%00:00 (00:00)
415 Revenge of Roger Rouge Apr 22, 2016 $0.99N/A (N/A)20,000 .. 50,0000%00:00 (00:00)
416 SPACECOM Sep 17, 2014 $9.9924% (64%/68%)100,000 .. 200,0000.79%03:18 (02:11)
417 Urban Pirate Jun 17, 2016 $6.99N/A (N/A)0 .. 20,0000%00:00 (00:00)
418 Jagged Alliance: Crossfire Aug 24, 2012 $14.9924% (64%/63%)100,000 .. 200,0000%00:00 (00:00)
419 Beasts Battle Jun 15, 2016 $1.9924% (64%)0 .. 20,0000%00:00 (00:00)
420 Warlock 2: The Exiled Apr 10, 2014 $19.9924% (64%/73%)50,000 .. 100,0000%00:00 (00:00)
421 Pixel Boy and the Ever Expanding Dungeon May 30, 2014 $0.9923% (63%)20,000 .. 50,0000%00:00 (00:00)
422 Crazy Forest Jul 6, 2016 $0.4923% (63%)100,000 .. 200,0000.83%02:24 (01:04)
423 War, the Game Jan 12, 2015 $6.9923% (63%/65%)20,000 .. 50,0000%00:00 (00:00)
424 Will Fight for Food: Super Actual Sellout: Game of the Hour Apr 22, 2015 $5.99N/A (N/A)0 .. 20,0002%03:55 (01:18)
425 Desert Ashes Nov 10, 2014 $4.9923% (63%)20,000 .. 50,0000%00:00 (00:00)
426 Goblin Defenders: Steel‘n’ Wood Aug 21, 2013 $2.9922% (62%)20,000 .. 50,0001.06%03:26 (01:08)
427 Sorcerer King: Rivals Sep 22, 2016 $14.9922% (62%)20,000 .. 50,0000%00:00 (00:00)
428 Port Royale 2 Apr 30, 2004 $4.9922% (62%/75%)50,000 .. 100,0000%00:00 (00:00)
429 Disney Epic Mickey 2: The Power of Two Nov 18, 2012 $19.9922% (62%)20,000 .. 50,0000%00:00 (00:00)
430 Freight Tycoon Inc. Aug 15, 2007 $4.9922% (62%)20,000 .. 50,0000%00:00 (00:00)
431 Flashback Oct 1, 2013 $9.9922% (62%)20,000 .. 50,0005%06:51 (02:17)
432 4089: Ghost Within Jan 9, 2015 $5.9922% (62%)0 .. 20,0000%00:00 (00:00)
433 Battleplan: American Civil War Jul 4, 2014 $9.9922% (62%/66%)100,000 .. 200,0000.66%01:35 (01:27)
434 Bombshell Jan 29, 2016 $34.9922% (62%)0 .. 20,0000%00:00 (00:00)
435 BattleLore: Command Nov 25, 2014 $6.9922% (62%)0 .. 20,0000%00:00 (00:00)
436 The Few Jun 18, 2014 $7.9922% (62%)20,000 .. 50,0000%00:00 (00:00)
437 Hyperspace Pinball Sep 30, 2015 $2.99N/A (N/A)0 .. 20,0000%00:00 (00:00)
438 Supreme Ruler: Cold War Jul 29, 2011 $9.9922% (62%/63%)20,000 .. 50,0000%00:00 (00:00)
439 My Super Tower 2 Jan 27, 2017 $0.99N/A (N/A)0 .. 20,0000%00:00 (00:00)
440 Men of War: Vietnam Sep 8, 2011 $7.9921% (61%/68%)100,000 .. 200,0000.72%00:12 (00:04)
441 Legions of Steel Jul 16, 2015 $19.99N/A (N/A/64%)0 .. 20,0000%00:00 (00:00)
442 Spice Road Apr 24, 2014 $19.9921% (61%)0 .. 20,0000%00:00 (00:00)
443 E.T. Armies Mar 3, 2016 $14.9921% (61%/54%)0 .. 20,0000%00:00 (00:00)
444 Gnumz: Masters of Defense Dec 21, 2015 $4.9921% (61%)20,000 .. 50,0002.72%01:12 (02:43)
445 Call of Duty: Black Ops - Mac Edition Sep 27, 2012 $19.9921% (61%)50,000 .. 100,0000%00:00 (00:00)
446 Purgatory Jun 22, 2016 $0.9921% (61%)200,000 .. 500,0000.28%00:36 (00:47)
447 Overruled! Sep 15, 2015 $12.9919% (60%)20,000 .. 50,0000%00:00 (00:00)
448 Stay Dead Evolution Feb 4, 2015 $5.9919% (60%)20,000 .. 50,0001.3%03:46 (01:15)
449 Close Combat - Panthers in the Fog Nov 19, 2012 $39.9919% (60%)0 .. 20,0000%00:00 (00:00)
450 Woolfe - The Red Hood Diaries Mar 17, 2015 $9.9919% (60%/55%)50,000 .. 100,0001.1%01:23 (00:27)
451 Quarantine Feb 9, 2017 $9.9919% (60%)0 .. 20,0000%00:00 (00:00)
452 Patrician IV - Steam Special Edition Sep 17, 2010 $14.9919% (60%/66%)100,000 .. 200,0001.18%01:52 (01:11)
453 Grim Seventh Jan 20, 2017 FreeN/A (N/A)0 .. 20,0000%00:00 (00:00)
454 Disciples III - Renaissance Steam Special Edition Jul 16, 2010 $14.9919% (60%/56%)100,000 .. 200,0000%00:00 (00:00)
455 Hybrid Wars Sep 29, 2016 $17.9919% (60%/54%)0 .. 20,0000%00:00 (00:00)
456 Code of Princess Apr 14, 2016 $14.9919% (60%/53%)0 .. 20,0000%00:00 (00:00)
457 Merchants of Kaidan Nov 10, 2014 $14.9919% (60%)100,000 .. 200,0003.32%03:08 (03:25)
458 Cemetery Warrior 3 Feb 3, 2017 $0.9919% (60%)50,000 .. 100,0000%00:00 (00:00)
459 Skyshine's BEDLAM Sep 16, 2015 $19.9919% (60%/67%)20,000 .. 50,0000%00:00 (00:00)
460 VR Journey Dec 15, 2016 $2.9918% (59%)20,000 .. 50,0000%00:00 (00:00)
461 Prospekt Feb 18, 2016 $9.9918% (59%)20,000 .. 50,0004.35%00:20 (00:06)
462 Check vs Mate Aug 16, 2012 $19.9918% (59%/69%)0 .. 20,0000%00:00 (00:00)
463 Antisquad Oct 31, 2014 $5.9918% (59%)50,000 .. 100,0000%00:00 (00:00)
464 Armada 2526 Gold Edition Feb 28, 2013 $19.9918% (59%/66%)20,000 .. 50,0000%00:00 (00:00)
465 NOBUNAGA'S AMBITION: Sphere of Influence - Ascension / 信長の野望・創造 戦国立志伝 Mar 23, 2016 $59.9918% (59%)50,000 .. 100,00033.33%07:25 (02:28)
466 Ninjahtic Mind Tricks Jul 16, 2015 $1.99N/A (N/A)0 .. 20,0000%00:00 (00:00)
467 Super Helmets on Fire DX Ultra Edition Plus Alpha Feb 15, 2016 $0.99N/A (N/A)0 .. 20,0000%00:00 (00:00)
468 7 Grand Steps: What Ancients Begat Jun 7, 2013 $19.9918% (59%)100,000 .. 200,0000%00:00 (00:00)
469 Life in Bunker Feb 25, 2016 $15.9918% (59%)0 .. 20,0000%00:00 (00:00)
470 Woodle Tree 2: Worlds Sep 16, 2016 $3.9918% (59%)50,000 .. 100,0002.26%03:40 (03:30)
471 Heavy Fire: Afghanistan Aug 15, 2014 $2.9917% (58%)20,000 .. 50,0000%00:00 (00:00)
472 Wanderlust Adventures Aug 10, 2015 $9.9917% (58%)20,000 .. 50,0000%00:00 (00:00)
473 Prophour23 Oct 22, 2014 $9.9917% (58%)0 .. 20,0000%00:00 (00:00)
474 DreamBreak Jul 21, 2016 $6.9917% (58%/46%)0 .. 20,0000%00:00 (00:00)
475 Adventure World Aug 2, 2016 $4.99N/A (N/A)0 .. 20,0000%00:00 (00:00)
476 Dawn of Andromeda May 4, 2017 $29.9917% (58%/70%)0 .. 20,0000%00:00 (00:00)
477 Ceres Oct 16, 2015 $19.9917% (58%/74%)0 .. 20,0000%00:00 (00:00)
478 Colonial Conquest Jul 28, 2015 $9.9917% (58%)0 .. 20,0004.35%00:44 (00:14)
479 Sir! I'd Like To Report A Bug! Oct 19, 2015 $1.99N/A (N/A)0 .. 20,0000%00:00 (00:00)
480 Unearthed: Trail of Ibn Battuta - Episode 1 - Gold Edition Jan 3, 2014 $4.9916% (57%)20,000 .. 50,0000%00:00 (00:00)
481 Rise of Venice Sep 27, 2013 $19.9916% (57%/66%)50,000 .. 100,0001.45%06:07 (02:02)
482 Gates of Horizon Dec 18, 2014 $9.9916% (57%)0 .. 20,0007.14%03:31 (01:10)
483 Defend Your Crypt Jul 21, 2016 $2.99N/A (N/A)0 .. 20,0004%02:30 (00:50)
484 Delve Deeper Sep 24, 2010 $4.9915% (56%)50,000 .. 100,0000%00:00 (00:00)
485 Abalone Apr 23, 2014 $4.9915% (56%)0 .. 20,0000%00:00 (00:00)
486 Horizon Feb 6, 2014 $29.9915% (56%)50,000 .. 100,0000%00:00 (00:00)
487 Gettysburg: The Tide Turns Jul 14, 2017 $9.99N/A (N/A)0 .. 20,0000%00:00 (00:00)
488 BC Kings Sep 15, 2008 $4.9915% (55%)20,000 .. 50,0000%00:00 (00:00)
489 Pain Train Jan 11, 2017 $0.9915% (55%)50,000 .. 100,0007.8%02:48 (03:14)
490 Sovereignty: Crown of Kings Feb 2, 2017 $24.9915% (55%)0 .. 20,0000%00:00 (00:00)
491 Wickland Nov 14, 2014 $0.9914% (54%)50,000 .. 100,0001.03%01:21 (00:54)
492 Crusaders: Thy Kingdom Come Oct 8, 2009 $9.99N/A (N/A)20,000 .. 50,0000%00:00 (00:00)
493 Tic-Toc-Tower Sep 28, 2015 $2.9914% (54%)0 .. 20,0000%00:00 (00:00)
494 Urja Jan 9, 2015 $9.9914% (54%)0 .. 20,0001.05%00:19 (00:06)
495 Defence to death May 11, 2017 $1.99N/A (N/A)50,000 .. 100,0000%00:00 (00:00)
496 RESCUE 2: Everyday Heroes Jun 3, 2015 $19.9913% (53%)20,000 .. 50,0000%00:00 (00:00)
497 Smugglers 5 Apr 11, 2014 $9.9913% (53%)20,000 .. 50,0000%00:00 (00:00)
498 Aegis Oct 6, 2016 $2.99N/A (N/A)0 .. 20,0000%00:00 (00:00)
499 Armada 2526 Jun 10, 2010 $14.99N/A (N/A/66%)0 .. 20,0000%00:00 (00:00)
500 Nightside Apr 2, 2015 $9.9913% (53%)20,000 .. 50,0000%00:00 (00:00)
501 Story Of the Survivor Feb 17, 2016 $4.99N/A (N/A)50,000 .. 100,0000%00:00 (00:00)
502 Meridian: New World Apr 4, 2014 $6.9913% (52%/43%)50,000 .. 100,0000%00:00 (00:00)
503 The Campaign Series: Fall Weiss May 30, 2014 $14.9913% (52%)20,000 .. 50,0000%00:00 (00:00)
504 Scapeland Mar 31, 2016 $3.9913% (52%)0 .. 20,0000%00:00 (00:00)
505 Royal Bounty HD Aug 10, 2015 $2.9913% (52%)0 .. 20,0000%00:00 (00:00)
506 The Stalin Subway Oct 5, 2006 $3.9913% (52%)20,000 .. 50,0000%00:00 (00:00)
507 Biodrone Battle Jul 16, 2015 $1.9912% (51%)100,000 .. 200,0000%00:00 (00:00)
508 Guncraft Aug 9, 2013 $14.9912% (51%/73%)100,000 .. 200,0000%00:00 (00:00)
509 MDK2 HD Jul 30, 2012 $14.9912% (51%/73%)0 .. 20,0000%00:00 (00:00)
510 Dusty Revenge:Co-Op Edition Feb 17, 2014 $14.9912% (51%)50,000 .. 100,0000%00:00 (00:00)
511 Castle Werewolf 3D Feb 7, 2017 $2.99N/A (N/A)50,000 .. 100,0000%00:00 (00:00)
512 PeriAreion Feb 19, 2015 $5.99N/A (N/A)0 .. 20,0000%00:00 (00:00)
513 Weather Lord: The Successor's Path Apr 8, 2015 $4.99N/A (N/A)0 .. 20,0000%00:00 (00:00)
514 Marvel: Ultimate Alliance 2 Jul 26, 2016 $39.9911% (50%)0 .. 20,0000%00:00 (00:00)
515 No Pineapple Left Behind Feb 18, 2016 $6.99N/A (N/A/59%)0 .. 20,0000%00:00 (00:00)
516 MinosMaze - The Minotaur's Labyrinth May 1, 2017 $4.99N/A (N/A)0 .. 20,0000%00:00 (00:00)
517 Albedo: Eyes from Outer Space Apr 10, 2015 $14.9911% (50%/66%)20,000 .. 50,0000%00:00 (00:00)
518 Odd||Even Apr 6, 2016 $0.9911% (50%)20,000 .. 50,0000%00:00 (00:00)
519 Kidnapped Aug 4, 2015 $2.9911% (49%)100,000 .. 200,0000.32%01:17 (00:25)
520 Z Steel Soldiers Aug 1, 2014 $12.9910% (48%)50,000 .. 100,0001.4%02:35 (02:34)
521 Aggression: Europe Under Fire May 10, 2007 $9.9910% (48%)50,000 .. 100,0000%00:00 (00:00)
522 Synonymy Dec 12, 2014 $1.9910% (48%)0 .. 20,0001.96%00:01 (00:00)
523 Meridian: Squad 22 Aug 11, 2016 $14.9910% (48%)0 .. 20,0000%00:00 (00:00)
524 Rubber and Lead Sep 4, 2015 $4.9910% (48%)20,000 .. 50,0000.88%02:03 (00:41)
525 Blasting Agent: Ultimate Edition Aug 17, 2016 $2.99N/A (N/A)0 .. 20,0000%00:00 (00:00)
526 Star Traders: 4X Empires Nov 18, 2014 $9.9910% (47%)0 .. 20,0000%00:00 (00:00)
527 Crossfire: Dungeons Jan 15, 2007 $3.9910% (47%)0 .. 20,0000%00:00 (00:00)
528 ALONE IN SPACE Feb 27, 2016 $9.9910% (47%)0 .. 20,0000%00:00 (00:00)
529 Disposable Heroes Oct 1, 2015 $4.9910% (47%)0 .. 20,0005.26%01:24 (01:24)
530 Island Defense Jul 23, 2015 $1.9910% (47%)50,000 .. 100,0000.31%05:33 (01:51)
531 Hero Generations Apr 10, 2015 $5.9910% (47%)0 .. 20,0000%00:00 (00:00)
532 Redemption: Saints And Sinners Nov 18, 2016 $0.999% (46%)50,000 .. 100,0001.01%13:50 (13:50)
533 Megamagic: Wizards of the Neon Age Apr 20, 2016 $9.999% (46%/67%)20,000 .. 50,0005.75%02:10 (02:08)
534 Magic Quest May 6, 2016 $1.99N/A (N/A)50,000 .. 100,0000.29%05:56 (01:58)
535 The Stalin Subway: Red Veil Oct 5, 2006 $2.999% (46%)50,000 .. 100,0000%00:00 (00:00)
536 Chronostorm: Siberian Border Apr 2, 2009 $0.99N/A (N/A)0 .. 20,0000%00:00 (00:00)
537 Hell Nov 13, 2014 $29.99N/A (N/A)0 .. 20,0000%00:00 (00:00)
538 HitBox Jan 30, 2017 Free8% (45%)0 .. 20,0000%00:00 (00:00)
539 The Bluecoats: North vs South May 10, 2012 $4.998% (45%)50,000 .. 100,0001.12%02:32 (00:50)
540 Impire Feb 14, 2013 $19.998% (45%/45%)100,000 .. 200,0000%00:00 (00:00)
541 Carrier Command: Gaea Mission Sep 28, 2012 $32.998% (45%/60%)200,000 .. 500,0000.66%00:09 (00:03)
542 World War 2: Time of Wrath Jun 15, 2009 $4.998% (45%)20,000 .. 50,0000%00:00 (00:00)
543 Commander: Conquest of the Americas Jul 30, 2010 $9.998% (45%/68%)50,000 .. 100,0000%00:00 (00:00)
544 Battle Chess: Game of Kings Dec 11, 2015 $29.998% (45%)0 .. 20,0000%00:00 (00:00)
545 Nux Dec 26, 2006 $6.998% (44%)100,000 .. 200,0000.66%01:18 (01:36)
546 Skyward Collapse May 23, 2013 $4.998% (44%/64%)100,000 .. 200,0000%00:00 (00:00)
547 Pride of Nations Jun 8, 2011 $19.998% (44%/70%)20,000 .. 50,0000%00:00 (00:00)
548 DUNGEONS - Steam Special Edition Feb 10, 2011 $9.998% (43%/65%)200,000 .. 500,0000.58%00:26 (00:08)
549 Vendetta - Curse of Raven's Cry Nov 20, 2015 $29.998% (43%)0 .. 20,00018.75%05:47 (03:33)
550 Burstfire Sep 24, 2015 N/A7% (42%)50,000 .. 100,0000%00:00 (00:00)
551 The Entente Gold Aug 11, 2003 $1.997% (42%)50,000 .. 100,0000%00:00 (00:00)
552 Samudai Feb 9, 2015 $2.997% (42%)20,000 .. 50,0000%00:00 (00:00)
553 Sword of the Stars II: Enhanced Edition Nov 30, 2012 $19.997% (42%/65%)100,000 .. 200,0000%00:00 (00:00)
554 Lost in Paradise Aug 20, 2015 $2.997% (41%)20,000 .. 50,0000%00:00 (00:00)
555 Hydraulic Empire Jul 31, 2015 $7.997% (41%)0 .. 20,0000%00:00 (00:00)
556 Rulers of Nations Jul 16, 2014 $19.997% (41%/63%)0 .. 20,0000%00:00 (00:00)
557 Infection: Humanity's Last Gasp May 26, 2016 $9.99N/A (N/A)0 .. 20,0000%00:00 (00:00)
558 Dead But Alive! Southern England Oct 2, 2015 $14.996% (40%)0 .. 20,0002.17%03:00 (01:00)
559 Strategic War in Europe Mar 21, 2014 $14.996% (40%)20,000 .. 50,0001.14%06:54 (02:18)
560 R.I.P.D.: The Game Jul 16, 2013 $9.996% (40%)20,000 .. 50,0000%00:00 (00:00)
561 Heavy Fire: Shattered Spear Oct 23, 2015 $3.99N/A (N/A)0 .. 20,0000%00:00 (00:00)
562 Pain Train 2 Mar 16, 2017 $6.996% (40%)0 .. 20,00022.64%03:53 (04:46)
563 Devils & Demons Oct 6, 2015 $9.99N/A (N/A)20,000 .. 50,0000%00:00 (00:00)
564 The Kings' Crusade Oct 8, 2010 $9.996% (40%/71%)50,000 .. 100,0000%00:00 (00:00)
565 Wave of Darkness Nov 5, 2015 $29.996% (39%)0 .. 20,0000%00:00 (00:00)
566 Dungeons - The Dark Lord Sep 27, 2011 $19.996% (39%/72%)100,000 .. 200,0000%00:00 (00:00)
567 Zombie Apocalypse: Escape The Undead City Nov 25, 2013 $0.996% (39%)0 .. 20,0000%00:00 (00:00)
568 Control Craft 2 Feb 15, 2016 $2.996% (39%)0 .. 20,0003.51%01:34 (01:02)
569 Dark Matter Oct 17, 2013 $9.996% (39%)0 .. 20,0000%00:00 (00:00)
570 Mechs & Mercs: Black Talons Jan 9, 2015 $9.996% (38%)0 .. 20,0000%00:00 (00:00)
571 Gratuitous Space Battles 2 Apr 16, 2015 $9.996% (38%)20,000 .. 50,0000%00:00 (00:00)
572 Risk Jun 10, 2013 $9.996% (38%)20,000 .. 50,0000%00:00 (00:00)
573 Tiamat X May 29, 2015 $1.996% (38%)50,000 .. 100,0000%00:00 (00:00)
574 Stellar Impact Apr 12, 2012 $9.995% (37%/74%)50,000 .. 100,0000%00:00 (00:00)
575 Kick-Ass 2 Aug 15, 2014 $19.995% (36%)0 .. 20,0000%00:00 (00:00)
576 Knight Adventure Oct 15, 2015 $0.99N/A (N/A)50,000 .. 100,0005.94%06:21 (06:02)
577 Shadows of War Sep 19, 2014 $2.995% (35%)20,000 .. 50,0000%00:00 (00:00)
578 Urban Empire Jan 20, 2017 $29.995% (35%/62%)50,000 .. 100,0000%00:00 (00:00)
579 Blue Sheep Mar 31, 2016 $1.99N/A (N/A)0 .. 20,0000%00:00 (00:00)
580 Fallen: A2P Protocol Aug 14, 2015 $9.994% (34%)20,000 .. 50,0007.14%00:04 (00:01)
581 CTU: Counter Terrorism Unit Apr 22, 2016 $14.994% (34%)0 .. 20,0000%00:00 (00:00)
582 Arma Tactics Oct 1, 2013 $8.994% (34%/47%)200,000 .. 500,0000.81%02:19 (02:19)
583 Into the Void Dec 4, 2015 $4.994% (34%)20,000 .. 50,0001.69%00:31 (00:10)
584 Sim Junta Aug 18, 2015 $1.994% (33%)0 .. 20,0000%00:00 (00:00)
585 Jagged Alliance Flashback Oct 21, 2014 $19.994% (33%)20,000 .. 50,0000%00:00 (00:00)
586 Ranger of the jungle Jul 16, 2016 $3.99N/A (N/A)0 .. 20,0000%00:00 (00:00)
587 Disciples III - Resurrection Oct 11, 2011 $14.994% (32%/63%)100,000 .. 200,0000%00:00 (00:00)
588 Evopollution Apr 23, 2014 $4.994% (31%)0 .. 20,0000%00:00 (00:00)
589 Ground Pounders Jul 15, 2014 $4.99N/A (N/A)0 .. 20,0000%00:00 (00:00)
590 A Game of Thrones - Genesis Sep 29, 2011 $9.994% (31%)100,000 .. 200,0000%00:00 (00:00)
591 Robotex Nov 18, 2014 $4.994% (31%)100,000 .. 200,0000.66%03:17 (02:11)
592 Ku: Shroud of the Morrigan Mar 17, 2014 $4.994% (31%)20,000 .. 50,0000%00:00 (00:00)
593 Zombie Zoeds May 20, 2015 $2.994% (31%)200,000 .. 500,0000.42%00:04 (00:02)
594 Psichodelya Aug 8, 2014 $1.994% (31%)100,000 .. 200,0000.34%00:01 (00:00)
595 Defenders of Time Nov 4, 2014 N/AN/A (N/A/55%)0 .. 20,0000%00:00 (00:00)
596 Power of Defense Aug 4, 2010 $9.99N/A (N/A)0 .. 20,0000%00:00 (00:00)
597 Tank Operations: European Campaign Nov 22, 2013 $14.993% (30%)20,000 .. 50,0000%00:00 (00:00)
598 Solar Shifter EX Sep 11, 2015 $4.993% (28%)20,000 .. 50,0002.22%02:20 (00:46)
599 Hard Truck Apocalypse: Arcade / Ex Machina: Arcade May 24, 2007 $4.993% (26%)20,000 .. 50,0000%00:00 (00:00)
600 Gridberd Sep 7, 2015 $6.993% (26%)200,000 .. 500,0000.36%01:21 (00:36)
601 One Star Apr 17, 2017 $2.99N/A (N/A)50,000 .. 100,0000.95%01:30 (01:06)
602 Zombies on a Plane Mar 25, 2016 $4.992% (25%)0 .. 20,0000%00:00 (00:00)
603 APOX Jan 20, 2011 $14.992% (23%/48%)20,000 .. 50,0000%00:00 (00:00)
604 Elite vs. Freedom May 31, 2016 $4.992% (22%)0 .. 20,0000%00:00 (00:00)
605 Lords of the Black Sun Sep 12, 2014 $29.992% (21%)0 .. 20,0000%00:00 (00:00)
606 The Asskickers-Steam Edition Feb 6, 2015 $9.992% (21%)0 .. 20,0000%00:00 (00:00)
607 Gemini Wars Nov 2, 2012 $14.992% (19%/53%)20,000 .. 50,0000%00:00 (00:00)
608 Star Project Aug 4, 2016 $1.992% (19%)100,000 .. 200,0004.29%04:18 (04:41)
609 Human Extinction Simulator Jan 21, 2015 $19.99N/A (N/A)0 .. 20,0000%00:00 (00:00)
610 Tryst Sep 14, 2012 $14.99N/A (N/A/50%)0 .. 20,0000%00:00 (00:00)
611 Prison Tycoon 3: Lockdown Aug 1, 2007 $9.992% (16%)20,000 .. 50,0000%00:00 (00:00)
612 Once Bitten, Twice Dead! Jul 17, 2015 $4.991% (13%)20,000 .. 50,0000%00:00 (00:00)
613 Citadels Jul 25, 2013 $14.991% (12%/20%)20,000 .. 50,0000%00:00 (00:00)
614 Bloodbath Jun 16, 2014 $14.99N/A (N/A)0 .. 20,0000%00:00 (00:00)
615 Magnetic By Nature Nov 10, 2014 $9.99N/A (N/A)20,000 .. 50,0000%00:00 (00:00)

Owners of this game also own:

Access restricted.

This feature is only available to users with special access rights. Sorry.

If you want to proceed, you need to register or log in first and then back Steam Spy on Patreon. Look for Indie or Pro pledge.

Don't forget to use the same email as on Steam Spy!

Playtime distribution:

Access restricted.

This feature is only available to users with special access rights. Sorry.

If you want to proceed, you need to register or log in first and then back Steam Spy on Patreon. Look for Indie or Pro pledge.

Don't forget to use the same email as on Steam Spy!

Playtime (2 weeks):

Access restricted.

This feature is only available to users with special access rights. Sorry.

If you want to proceed, you need to register or log in first and then back Steam Spy on Patreon. Look for Indie or Pro pledge.

Don't forget to use the same email as on Steam Spy!

User reviews:

Login required.

Please register or log in to see this information.